Map

Track Data

SID SEASON NUMBER BASIN SUBBASIN NAME ISO_TIME NATURE LAT LON WMO_WIND WMO_PRES WMO_AGENCY TRACK_TYPE DIST2LAND LANDFALL IFLAG USA_AGENCY USA_ATCF_ID USA_LAT USA_LON USA_RECORD USA_STATUS USA_WIND USA_PRES USA_SSHS USA_R34_NE USA_R34_SE USA_R34_SW USA_R34_NW USA_R50_NE USA_R50_SE USA_R50_SW USA_R50_NW USA_R64_NE USA_R64_SE USA_R64_SW USA_R64_NW USA_POCI USA_ROCI USA_RMW USA_EYE TOKYO_LAT TOKYO_LON TOKYO_GRADE TOKYO_WIND TOKYO_PRES TOKYO_R50_DIR TOKYO_R50_LONG TOKYO_R50_SHORT TOKYO_R30_DIR TOKYO_R30_LONG TOKYO_R30_SHORT TOKYO_LAND CMA_LAT CMA_LON CMA_CAT CMA_WIND CMA_PRES HKO_LAT HKO_LON HKO_CAT HKO_WIND HKO_PRES NEWDELHI_LAT NEWDELHI_LON NEWDELHI_GRADE NEWDELHI_WIND NEWDELHI_PRES NEWDELHI_CI NEWDELHI_DP NEWDELHI_POCI REUNION_LAT REUNION_LON REUNION_TYPE REUNION_WIND REUNION_PRES REUNION_TNUM REUNION_CI REUNION_RMW REUNION_R34_NE REUNION_R34_SE REUNION_R34_SW REUNION_R34_NW REUNION_R50_NE REUNION_R50_SE REUNION_R50_SW REUNION_R50_NW REUNION_R64_NE REUNION_R64_SE REUNION_R64_SW REUNION_R64_NW BOM_LAT BOM_LON BOM_TYPE BOM_WIND BOM_PRES BOM_TNUM BOM_CI BOM_RMW BOM_R34_NE BOM_R34_SE BOM_R34_SW BOM_R34_NW BOM_R50_NE BOM_R50_SE BOM_R50_SW BOM_R50_NW BOM_R64_NE BOM_R64_SE BOM_R64_SW BOM_R64_NW BOM_ROCI BOM_POCI BOM_EYE BOM_POS_METHOD BOM_PRES_METHOD NADI_LAT NADI_LON NADI_CAT NADI_WIND NADI_PRES WELLINGTON_LAT WELLINGTON_LON WELLINGTON_WIND WELLINGTON_PRES DS824_LAT DS824_LON DS824_STAGE DS824_WIND DS824_PRES TD9636_LAT TD9636_LON TD9636_STAGE TD9636_WIND TD9636_PRES TD9635_LAT TD9635_LON TD9635_WIND TD9635_PRES TD9635_ROCI NEUMANN_LAT NEUMANN_LON NEUMANN_CLASS NEUMANN_WIND NEUMANN_PRES MLC_LAT MLC_LON MLC_CLASS MLC_WIND MLC_PRES USA_GUST BOM_GUST BOM_GUST_PER REUNION_GUST REUNION_GUST_PER USA_SEAHGT USA_SEARAD_NE USA_SEARAD_SE USA_SEARAD_SW USA_SEARAD_NW STORM_SPEED STORM_DIR
1956302S10098 1957 104 SI WA NOT_NAMED 1956-10-27 16:00:00 NR -9.80000 97.7000 main 824 824 __________O___ -1 -9.80000 97.7000 1 25 1 0
1956302S10098 1957 104 SI WA NOT_NAMED 1956-10-27 18:00:00 TS -9.80747 97.6813 main 824 824 O________OP___ jtwc_sh SH031957 -9.80000 97.7000 25 -1 -9.80000 97.7000 TC 25 -9.81494 97.6626 1 25 1 248
1956302S10098 1957 104 SI WA NOT_NAMED 1956-10-27 21:00:00 TS -9.82556 97.6258 main 831 831 P________PP___ SH031957 -9.79746 97.6625 25 -1 -9.79746 97.6625 TC 25 -9.86302 97.5769 1 25 2 240
1956302S10098 1957 104 SI WA NOT_NAMED 1956-10-28 00:00:00 TS -9.93083 97.4659 main 847 847 O________OP___ jtwc_sh SH031957 -9.90000 97.5000 25 -1 -9.90000 97.5000 TC 25 -9.97708 97.4148 1 25 4 235
1956302S10098 1957 104 SI WA NOT_NAMED 1956-10-28 01:00:00 TS -9.98021 97.4020 1000 bom main 862 862 P_____O__PP___ SH031957 -9.97454 97.3978 25 -1 -9.80000 97.7000 1000 -9.97454 97.3978 TC 25 -10.0366 97.3358 1 25 8 232
1956302S10098 1957 104 SI WA NOT_NAMED 1956-10-28 03:00:00 TS -10.1795 97.1405 main 901 901 P_____P__PP___ SH031957 -10.1825 97.1249 25 -1 -10.1334 97.2235 1000 -10.1825 97.1249 TC 25 -10.1966 97.1302 1 25 11 232
1956302S10098 1957 104 SI WA NOT_NAMED 1956-10-28 04:00:00 TS -10.3055 96.9795 1000 bom main 916 916 P_____O__PO___ SH031957 -10.3104 96.9616 25 -1 -10.3000 97.0000 1000 -10.3104 96.9616 TC 25 -10.3000 97.0000 1 25 13 231
1956302S10098 1957 104 SI WA NOT_NAMED 1956-10-28 06:00:00 TS -10.5975 96.6180 main 970 970 O_____P__OP___ jtwc_sh SH031957 -10.6000 96.6000 25 -1 -10.6333 96.5945 1000 -10.6000 96.6000 TC 25 -10.5561 96.6822 1 14 230
1956302S10098 1957 104 SI WA NOT_NAMED 1956-10-28 07:00:00 TS -10.7520 96.4324 1000 bom main 1001 1001 P_____O__PP___ SH031957 -10.7495 96.4171 25 -1 -10.8000 96.4000 1000 -10.7495 96.4171 TC 25 -10.7052 96.4990 1 15 230
1956302S10098 1957 104 SI WA NOT_NAMED 1956-10-28 09:00:00 TS -11.0806 96.0409 main 1056 1056 P_____P__PP___ SH031957 -11.0775 96.0225 25 -1 -11.1333 95.9999 1000 -11.0775 96.0225 TC 25 -11.0349 96.0974 1 15 229
1956302S10098 1957 104 SI WA NOT_NAMED 1956-10-28 10:00:00 TS -11.2506 95.8408 1000 bom main 1087 1087 P_____O__PP___ SH031957 -11.2504 95.8163 25 -1 -11.3000 95.8000 1000 -11.2504 95.8163 TC 25 -11.2112 95.8842 1 16 229
1956302S10098 1957 104 SI WA NOT_NAMED 1956-10-28 12:00:00 TS -11.5954 95.4313 main 1141 1141 O_____P__OP___ jtwc_sh SH031957 -11.6000 95.4000 25 -1 -11.6333 95.3999 1000 -11.6000 95.4000 TC 25 -11.5767 95.4463 1 16 229
1956302S10098 1957 104 SI WA NOT_NAMED 1956-10-28 15:00:00 TS -12.1089 94.8194 main 1226 1226 P_____P__PP___ SH031957 -12.1074 94.7998 25 -1 -12.1333 94.7999 1000 -12.1074 94.7998 TC 25 -12.1253 94.8011 1 16 229
1956302S10098 1957 104 SI WA NOT_NAMED 1956-10-28 16:00:00 TS -12.2786 94.6149 1000 bom main 1258 1258 P_____O__PO___ SH031957 -12.2745 94.5999 25 -1 -12.3000 94.6000 1000 -12.2745 94.5999 TC 25 -12.3000 94.6000 1 16 230
1956302S10098 1957 104 SI WA NOT_NAMED 1956-10-28 18:00:00 TS -12.6099 94.2023 main 1312 1312 O_____P__OP___ jtwc_sh SH031957 -12.6000 94.2000 25 -1 -12.6333 94.2083 1000 -12.6000 94.2000 TC 25 -12.6162 94.2031 1 16 231
1956302S10098 1957 104 SI WA NOT_NAMED 1956-10-28 19:00:00 TS -12.7751 93.9798 1000 bom main 1343 1343 P_____O__PP___ SH031957 -12.7611 93.9712 25 -1 -12.8000 94.0000 1000 -12.7611 93.9712 TC 25 -12.7709 94.0099 1 16 233
1956302S10098 1957 104 SI WA NOT_NAMED 1956-10-28 21:00:00 TS -13.0984 93.5320 main 1405 1405 P_____P__PP___ SH031957 -13.0727 93.5178 25 -1 -13.1333 93.5308 1000 -13.0727 93.5178 TC 25 -13.0720 93.6442 1 16 233
1956302S10098 1957 104 SI WA NOT_NAMED 1956-10-28 22:00:00 TS -13.2539 93.3262 1000 bom main 1436 1436 P_____O__PP___ SH031957 -13.2214 93.3133 25 -1 -13.3000 93.3000 1000 -13.2214 93.3133 TC 25 -13.2175 93.4759 1 14 230
1956302S10098 1957 104 SI WA NOT_NAMED 1956-10-29 00:00:00 TS -13.5508 92.9836 main 1482 1487 O_____P__OP___ jtwc_sh SH031957 -13.5000 93.0000 25 -1 -13.6571 92.8394 999 -13.5000 93.0000 TC 25 -13.4971 93.1786 1 16 242
1956302S10098 1957 104 SI WA NOT_NAMED 1956-10-29 01:00:00 TS -13.6199 92.6176 999 bom main 1502 1502 P_____O__PP___ SH031957 -13.6305 92.9098 25 -1 -13.8000 92.7000 999 -13.6305 92.9098 TC 25 -13.6303 93.0539 1 12 248
1956302S10098 1957 104 SI WA NOT_NAMED 1956-10-29 03:00:00 TS -13.7824 92.3999 main 1532 1532 P_____P__PP___ SH031957 -13.8722 92.8372 25 -1 -13.9496 92.7207 999 -13.8722 92.8372 TC 25 -13.8821 92.8625 1 8 235
1956302S10098 1957 104 SI WA NOT_NAMED 1956-10-29 04:00:00 TS -13.8392 92.2924 999 bom main 1537 1537 P_____O__PO___ SH031957 -13.9852 92.8418 25 -1 -14.0000 92.8000 999 -13.9852 92.8418 TC 25 -14.0000 92.8000 1 25 5 207
1956302S10098 1957 104 SI WA NOT_NAMED 1956-10-29 06:00:00 TS -13.9932 92.2872 main 1557 1557 O_____P__OP___ jtwc_sh SH031957 -14.2000 92.9000 25 -1 -14.1254 92.9358 999 -14.2000 92.9000 TC 25 -14.2198 92.7621 1 5 173
1956302S10098 1957 104 SI WA NOT_NAMED 1956-10-29 07:00:00 TS -14.0875 92.3421 999 bom main 1567 1562 P_____O__PP___ SH031957 -14.3083 92.9271 24 -1 -14.2000 93.0000 999 -14.3083 92.9271 TC 24 -14.3217 92.7763 1 7 148
1956302S10098 1957 104 SI WA NOT_NAMED 1956-10-29 09:00:00 TS -14.2753 92.4675 main 1577 1577 P_____P__PP___ SH031957 -14.5150 93.0199 22 -1 -14.3939 93.0702 999 -14.5150 93.0199 TC 22 -14.5123 92.8573 1 7 146
1956302S10098 1957 104 SI WA NOT_NAMED 1956-10-29 10:00:00 TS -14.3670 92.5380 999 bom main 1585 1577 P_____O__PP___ SH031957 -14.6133 93.0782 21 -1 -14.5000 93.1000 999 -14.6133 93.0782 TC 21 -14.6021 92.9186 1 7 140
1956302S10098 1957 104 SI WA NOT_NAMED 1956-10-29 12:00:00 TS -14.5428 92.6934 main 1578 1579 O_____P__OP___ jtwc_sh SH031957 -14.8000 93.2000 20 -1 -14.7000 93.1963 999 -14.8000 93.2000 TC 20 -14.7736 93.0685 1 7 138
1956302S10098 1957 104 SI WA NOT_NAMED 1956-10-29 15:00:00 TS -14.7945 92.9320 main 1589 1581 P_____P__PP___ SH031957 -15.0575 93.3501 17 -1 -15.0000 93.3546 999 -15.0575 93.3501 TC 17 -15.0190 93.3202 1 7 137
1956302S10098 1957 104 SI WA NOT_NAMED 1956-10-29 16:00:00 TS -14.8751 93.0113 999 bom main 1590 1583 P_____O__PO___ SH031957 -15.1388 93.4000 16 -1 -15.1000 93.4000 999 -15.1388 93.4000 TC 16 -15.1000 93.4000 1 7 138
1956302S10098 1957 104 SI WA NOT_NAMED 1956-10-29 18:00:00 TS -15.0353 93.1560 main 1584 1584 O_____P__OP___ jtwc_sh SH031957 -15.3000 93.5000 15 -1 -15.3000 93.4685 999 -15.3000 93.5000 TC 15 -15.2827 93.4792 1 6 139
1956302S10098 1957 104 SI WA NOT_NAMED 1956-10-29 19:00:00 TS -15.1154 93.2241 999 bom main 1592 1592 P_____O__PP___ SH031957 -15.3860 93.5500 14 -1 -15.4000 93.5000 999 -15.3860 93.5500 TC 14 -15.3732 93.5178 1 6 140
1956302S10098 1957 104 SI WA NOT_NAMED 1956-10-29 21:00:00 TS -15.2714 93.3615 main 1595 1595 P_____P__PP___ SH031957 -15.5575 93.6500 12 -1 -15.6000 93.5667 999 -15.5575 93.6500 TC 12 -15.5507 93.5974 1 6 139
1956302S10098 1957 104 SI WA NOT_NAMED 1956-10-29 22:00:00 TS -15.3472 93.4316 999 bom main 1595 1595 P_____O__PP___ SH031957 -15.6412 93.7000 11 -1 -15.7000 93.6000 999 -15.6412 93.7000 TC 11 -15.6371 93.6404 1 6 138
1956302S10098 1957 104 SI WA NOT_NAMED 1956-10-30 00:00:00 TS -15.4961 93.5754 main 1596 1596 O_____P__OP___ jtwc_sh SH031957 -15.8000 93.8000 10 -1 -15.9158 93.6509 999 -15.8000 93.8000 TC 10 -15.8033 93.7371 1 6 136
1956302S10098 1957 104 SI WA NOT_NAMED 1956-10-30 01:00:00 TS -15.5660 93.6519 1000 bom main 1594 1586 P_____O__PP___ SH031957 -15.8749 93.8370 10 -1 -16.0000 93.7000 1000 -15.8749 93.8370 TC 10 -15.8825 93.7928 1 6 129
1956302S10098 1957 104 SI WA NOT_NAMED 1956-10-30 03:00:00 TS -15.6886 93.8222 main 1593 1584 P_____P__PP___ SH031957 -16.0149 93.9126 10 -1 -16.0696 93.8813 1000 -16.0149 93.9126 TC 10 -16.0312 93.9233 1 6 126
1956302S10098 1957 104 SI WA NOT_NAMED 1956-10-30 04:00:00 TS -15.7472 93.9156 1000 bom main 1584 1574 P_____O__PO___ SH031957 -16.0799 93.9606 10 -1 -16.1000 94.0000 1000 -16.0799 93.9606 TC 10 -16.1000 94.0000 1 10 7 122
1956302S10098 1957 104 SI WA NOT_NAMED 1956-10-30 06:00:00 TS -15.8702 94.1212 main 1581 1573 O_____P__OP___ jtwc_sh SH031957 -16.2000 94.1000 10 -1 -16.2358 94.2691 1000 -16.2000 94.1000 TC 10 -16.2257 94.2007 1 7 121
1956302S10098 1957 104 SI WA NOT_NAMED 1956-10-30 07:00:00 TS -15.9301 94.2320 1000 bom main 1573 1555 P_____O__PP___ SH031957 -16.2558 94.2074 10 -1 -16.3000 94.4000 1000 -16.2558 94.2074 TC 10 -16.2832 94.3127 1 7 118
1956302S10098 1957 104 SI WA NOT_NAMED 1956-10-30 09:00:00 TS -16.0401 94.4576 main 1555 1554 P_____P__PP___ SH031957 -16.3576 94.4700 10 -1 -16.3702 94.6036 1000 -16.3576 94.4700 TC 10 -16.3890 94.5526 1 7 117
1956302S10098 1957 104 SI WA NOT_NAMED 1956-10-30 10:00:00 TS -16.0941 94.5720 1000 bom main 1554 1546 P_____O__PP___ SH031957 -16.4055 94.6141 10 -1 -16.4000 94.7000 1000 -16.4055 94.6141 TC 10 -16.4381 94.6774 1 7 117
1956302S10098 1957 104 SI WA NOT_NAMED 1956-10-30 12:00:00 TS -16.2081 94.8019 main 1546 1537 O_____P__OP___ jtwc_sh SH031957 -16.5000 94.9000 10 -1 -16.4963 94.9296 1000 -16.5000 94.9000 TC 10 -16.5301 94.9293 1 7 119
1956302S10098 1957 104 SI WA NOT_NAMED 1956-10-30 15:00:00 TS -16.3918 95.1236 main 1537 1529 P_____P__PP___ SH031957 -16.6575 95.2725 7 -1 -16.6546 95.2879 1000 -16.6575 95.2725 TC 7 -16.6584 95.2902 1 7 121
1956302S10098 1957 104 SI WA NOT_NAMED 1956-10-30 16:00:00 TS -16.4525 95.2241 1000 bom main 1537 1522 P_____O__PO___ SH031957 -16.7079 95.3879 6 -1 -16.7000 95.4000 1000 -16.7079 95.3879 TC 6 -16.7000 95.4000 1 7 122
1956302S10098 1957 104 SI WA NOT_NAMED 1956-10-30 18:00:00 TS -16.5677 95.4120 main 1530 1522 O_____P__OP___ jtwc_sh SH031957 -16.8000 95.6000 5 -1 -16.7684 95.6018 1000 -16.8000 95.6000 TC 5 -16.7732 95.5945 1 6 122
1956302S10098 1957 104 SI WA NOT_NAMED 1956-10-30 19:00:00 TS -16.6198 95.5041 1000 bom main 1522 1515 P_____O__PP___ SH031957 -16.8364 95.7001 5 -1 -16.8000 95.7000 1000 -16.8364 95.7001 TC 5 -16.8076 95.6856 1 6 121
1956302S10098 1957 104 SI WA NOT_NAMED 1956-10-30 21:00:00 TS -16.7223 95.6809 main 1515 1515 P_____P__PP___ SH031957 -16.9000 95.8801 5 -1 -16.8667 95.9079 1000 -16.9000 95.8801 TC 5 -16.8764 95.8549 1 6 122
1956302S10098 1957 104 SI WA NOT_NAMED 1956-10-30 22:00:00 TS -16.7746 95.7629 1000 bom main 1516 1508 P_____O__PP___ SH031957 -16.9308 95.9601 5 -1 -16.9000 96.0000 1000 -16.9308 95.9601 TC 5 -16.9123 95.9328 1 5 127
1956302S10098 1957 104 SI WA NOT_NAMED 1956-10-31 00:00:00 TS -16.8856 95.9104 main 1517 1509 O_____P__OP___ jtwc_sh SH031957 -17.0000 96.1000 5 -1 -16.9588 96.1467 1000 -17.0000 96.1000 TC 5 -16.9912 96.0748 1 5 130
1956302S10098 1957 104 SI WA NOT_NAMED 1956-10-31 01:00:00 TS -16.9470 95.9767 1000 bom main 1509 1509 P_____O__PP___ SH031957 -17.0364 96.1641 5 -1 -17.0000 96.2000 1000 -17.0364 96.1641 TC 5 -17.0358 96.1386 1 6 136
1956302S10098 1957 104 SI WA NOT_NAMED 1956-10-31 03:00:00 TS -17.0931 96.1233 main 1519 1512 P_____P__PP___ SH031957 -17.1200 96.2726 7 -1 -17.1200 96.2721 1000 -17.1200 96.2726 TC 7 -17.1394 96.2513 1 6 136
1956302S10098 1957 104 SI WA NOT_NAMED 1956-10-31 04:00:00 TS -17.1751 96.2092 1000 bom main 1520 1513 P_____O__PO___ SH031957 -17.1708 96.3188 8 -1 -17.2000 96.3000 1000 -17.1708 96.3188 TC 8 -17.2000 96.3000 1 10 6 140
1956302S10098 1957 104 SI WA NOT_NAMED 1956-10-31 06:00:00 TS -17.3410 96.3389 main 1522 1523 O_____P__OP___ jtwc_sh SH031957 -17.3000 96.4000 10 -1 -17.3946 96.3667 1000 -17.3000 96.4000 TC 10 -17.3409 96.3822 1 7 141
1956302S10098 1957 104 SI WA NOT_NAMED 1956-10-31 07:00:00 TS -17.4323 96.4250 1001 bom main 1523 1523 P_____O__PP___ SH031957 -17.3813 96.4367 10 -1 -17.5000 96.4000 1001 -17.3813 96.4367 TC 10 -17.4203 96.4165 1 6 153
1956302S10098 1957 104 SI WA NOT_NAMED 1956-10-31 09:00:00 TS -17.6209 96.4884 main 1534 1534 P_____P__PP___ SH031957 -17.5725 96.5049 10 -1 -17.7026 96.4692 1001 -17.5725 96.5049 TC 10 -17.5942 96.4736 1 6 164
1956302S10098 1957 104 SI WA NOT_NAMED 1956-10-31 10:00:00 TS -17.7216 96.5151 1001 bom main 1543 1543 P_____O__PP___ SH031957 -17.6783 96.5372 10 -1 -17.8000 96.5000 1001 -17.6783 96.5372 TC 10 -17.6875 96.4973 1 6 168
1956302S10098 1957 104 SI WA NOT_NAMED 1956-10-31 12:00:00 TS -17.9179 96.5588 main 1554 1554 O_____P__OP___ jtwc_sh SH031957 -17.9000 96.6000 10 -1 -17.9833 96.5371 1001 -17.9000 96.6000 TC 10 -17.8840 96.5374 1 6 170
1956302S10098 1957 104 SI WA NOT_NAMED 1956-10-31 15:00:00 TS -18.1914 96.6011 main 1580 1580 ______P___P___ SH031957 -1 -18.2271 96.5787 1001 TC -18.1946 96.5854 1 6 172
1956302S10098 1957 104 SI WA NOT_NAMED 1956-10-31 16:00:00 TS -18.2793 96.6175 1002 bom main 1589 1589 ______O___O___ SH031957 -1 -18.3000 96.6000 1002 TC -18.3000 96.6000 1 5 163
1956302S10098 1957 104 SI WA NOT_NAMED 1956-10-31 18:00:00 TS -18.4281 96.6786 main 1592 1592 ______P_______ -1 -18.4351 96.6733 1002 1 5 161
1956302S10098 1957 104 SI WA NOT_NAMED 1956-10-31 19:00:00 NR -18.5000 96.7000 1003 bom main 1601 1601 ______O_______ -1 -18.5000 96.7000 1003 1 4 176
1956302S10098 1957 104 SI WA NOT_NAMED 1956-10-31 21:00:00 NR -18.6254 96.6976 main 1610 1610 ______P_______ -1 -18.6254 96.6976 1003 1 4 172
1956302S10098 1957 104 SI WA NOT_NAMED 1956-10-31 22:00:00 NR -18.7000 96.7000 1003 bom main 1619 1619 ______O_______ -1 -18.7000 96.7000 1003 1 5 169
1956302S10098 1957 104 SI WA NOT_NAMED 1956-11-01 00:00:00 NR -18.8921 96.7568 main 1631 1631 ______P_______ -1 -18.8921 96.7568 1003 1 6 163
1956302S10098 1957 104 SI WA NOT_NAMED 1956-11-01 01:00:00 NR -19.0000 96.8000 1004 bom main 1640 ______O_______ -1 -19.0000 96.8000 1004 1 7 165

About IBTrACS Database

This database is a web-friendly format of International Best Track Archive for Climate Stewardship (IBTrACS), a global best track data archive curated by NOAA dating back to 1842.

Updated: 2021-12-01